Humidity-temperature Sensor

Selected Measurement Type: Relative Humidity

 
Relative Humidity [%]     6 entries per hour
Showing data from 4/22/2015 (00:00:00 Z) to 4/19/2015 (00:01:00 Z)
Previous Next [ Day | 3-Days | 7-Days ]
First Last
Prev [ Day | 3-Days | 7-Days ] Next
First Last

Start Time:     :
End Time:     :     
Time (in GMT) :00 :50 :40 :30 :20 :10
Previous Next [ Day | 3-Days | 7-Days ]
First Last
Prev [ Day | 3-Days | 7-Days ] Next
First Last


123 => good data
MM => data is determined as missing
-- => data not received/configured
Back to Top Back to Top
4/22/2015 00:00 to 23:10 88.00 89.24 89.79 88.91 88.57 89.28
4/21/2015 23:00 to 22:10 90.37 90.67 90.02 94.00 93.25 91.99
4/21/2015 22:00 to 21:10 88.05 84.23 84.50 85.34 84.98 83.47
4/21/2015 21:00 to 20:10 83.35 83.14 82.26 83.05 83.58 85.30
4/21/2015 20:00 to 19:10 87.31 88.78 91.53 95.20 96.12 96.58
4/21/2015 19:00 to 18:10 96.73 97.09 97.65 98.01 97.97 96.84
4/21/2015 18:00 to 17:10 96.27 96.10 95.93 95.33 94.88 94.70
4/21/2015 17:00 to 16:10 94.74 94.26 93.37 91.88 89.85 88.68
4/21/2015 16:00 to 15:10 88.17 88.95 89.16 89.81 90.71 91.61
4/21/2015 15:00 to 14:10 92.45 93.31 94.21 94.72 95.03 95.09
4/21/2015 14:00 to 13:10 95.20 95.41 95.20 95.14 95.74 96.56
4/21/2015 13:00 to 12:10 97.05 97.55 97.95 97.99 97.57 96.88
4/21/2015 12:00 to 11:10 95.91 95.18 94.30 92.85 92.39 92.35
4/21/2015 11:00 to 10:10 93.02 93.00 91.61 90.94 89.24 88.19
4/21/2015 10:00 to 9:10 87.71 87.48 87.61 87.98 88.00 88.72
4/21/2015 09:00 to 8:10 88.84 88.68 88.84 88.80 88.17 87.65
4/21/2015 08:00 to 7:10 87.77 88.07 88.13 88.21 88.51 88.99
4/21/2015 07:00 to 6:10 89.20 89.28 89.20 89.22 89.45 89.70
4/21/2015 06:00 to 5:10 89.91 90.12 90.35 90.75 91.21 91.86
4/21/2015 05:00 to 4:10 92.28 92.56 92.60 92.30 91.68 90.86
4/21/2015 04:00 to 3:10 86.79 83.89 84.33 84.31 84.67 85.40
4/21/2015 03:00 to 2:10 84.56 83.22 82.42 83.18 83.81 84.65
4/21/2015 02:00 to 1:10 84.33 83.35 83.07 82.76 82.93 82.78
4/21/2015 01:00 to 0:10 82.86 82.95 83.22 83.39 83.24 82.63
4/21/2015 00:00 to 23:10 82.19 81.96 82.55 81.10 80.39 79.23
4/20/2015 23:00 to 22:10 79.63 77.98 78.33 78.37 78.92 78.33
4/20/2015 22:00 to 21:10 78.94 81.23 82.59 82.63 83.22 83.58
4/20/2015 21:00 to 20:10 83.93 84.50 86.24 87.42 87.96 88.76
4/20/2015 20:00 to 19:10 88.34 88.09 87.50 86.12 84.19 83.18
4/20/2015 19:00 to 18:10 83.45 83.64 83.58 83.24 83.58 83.41
4/20/2015 18:00 to 17:10 83.35 83.16 82.80 82.68 81.96 81.71
4/20/2015 17:00 to 16:10 82.49 82.26 81.79 81.08 80.89 81.71
4/20/2015 16:00 to 15:10 82.59 82.53 82.61 83.20 82.44 82.34
4/20/2015 15:00 to 14:10 81.92 81.50 81.06 81.21 82.07 80.64
4/20/2015 14:00 to 13:10 80.20 78.96 80.05 81.29 82.03 82.89
4/20/2015 13:00 to 12:10 84.48 85.40 86.12 86.68 86.70 86.87
4/20/2015 12:00 to 11:10 87.52 87.86 87.63 87.71 87.84 87.88
4/20/2015 11:00 to 10:10 87.82 88.34 88.36 88.72 89.01 88.59
4/20/2015 10:00 to 9:10 87.46 87.42 87.19 87.31 87.31 87.12
4/20/2015 09:00 to 8:10 87.00 87.16 87.37 87.63 87.82 88.02
4/20/2015 08:00 to 7:10 88.49 88.49 88.34 88.36 88.40 88.40
4/20/2015 07:00 to 6:10 88.65 88.89 88.91 88.65 88.76 89.01
4/20/2015 06:00 to 5:10 89.51 90.04 90.12 89.18 88.95 88.80
4/20/2015 05:00 to 4:10 88.42 88.19 86.81 86.22 86.77 88.11
4/20/2015 04:00 to 3:10 87.84 86.98 86.66 86.87 87.77 88.59
4/20/2015 03:00 to 2:10 89.07 89.45 89.51 89.64 89.72 89.87
4/20/2015 02:00 to 1:10 89.79 89.66 89.64 89.37 88.72 87.67
4/20/2015 01:00 to 0:10 88.09 88.32 88.23 87.25 86.60 86.49
4/20/2015 00:00 to 23:10 85.00 84.75 84.88 84.06 83.51 83.87
4/19/2015 23:00 to 22:10 83.49 83.56 83.35 84.40 84.65 84.86
4/19/2015 22:00 to 21:10 84.75 84.67 84.52 84.58 84.46 84.69
4/19/2015 21:00 to 20:10 84.42 84.37 84.67 85.26 85.55 85.07
4/19/2015 20:00 to 19:10 85.70 85.68 85.68 85.63 86.75 87.61
4/19/2015 19:00 to 18:10 89.09 89.07 89.45 89.91 90.48 91.21
4/19/2015 18:00 to 17:10 91.57 91.99 91.59 91.91 91.95 91.49
4/19/2015 17:00 to 16:10 90.73 87.40 83.45 83.89 84.86 85.00
4/19/2015 16:00 to 15:10 85.30 84.92 84.44 84.71 83.93 84.79
4/19/2015 15:00 to 14:10 -- -- -- -- -- --
4/19/2015 14:00 to 13:10 85.99 86.79 87.29 87.48 87.52 86.72
4/19/2015 13:00 to 12:10 86.24 87.94 88.86 89.28 89.43 89.01
4/19/2015 12:00 to 11:10 88.86 88.84 89.14 87.75 86.03 86.81
4/19/2015 11:00 to 10:10 88.53 87.69 87.33 87.10 86.75 86.09
4/19/2015 10:00 to 9:10 87.33 88.11 89.22 90.31 90.75 91.40
4/19/2015 09:00 to 8:10 92.85 93.67 94.13 94.65 95.26 95.22
4/19/2015 08:00 to 7:10 95.20 95.28 95.58 95.81 95.64 95.12
4/19/2015 07:00 to 6:10 94.00 92.14 88.13 88.42 89.18 88.84
4/19/2015 06:00 to 5:10 88.26 87.73 87.75 88.23 89.20 88.97
4/19/2015 05:00 to 4:10 88.59 86.87 85.99 86.41 86.33 85.95
4/19/2015 04:00 to 3:10 86.60 88.00 89.79 91.02 90.86 90.31
4/19/2015 03:00 to 2:10 89.91 89.56 89.05 89.51 88.55 87.69
4/19/2015 02:00 to 1:10 88.07 83.66 81.54 84.90 84.96 81.67
4/19/2015 01:00 to 0:10 81.21 82.91 82.38 84.50 84.84 84.69